createdAt,value
2022-09-18T00:01:10.837Z,94078.34
2022-09-18T00:03:38.889Z,94073.19
2022-09-18T00:06:10.606Z,94092.09
2022-09-18T00:08:39.657Z,94110.25
2022-09-18T00:11:09.540Z,94127.03
2022-09-18T00:13:38.724Z,94137.41
2022-09-18T00:16:07.827Z,94107.22
2022-09-18T00:18:35.923Z,94124.44
2022-09-18T00:21:05.483Z,94166.78
2022-09-18T00:23:34.847Z,94168.00
2022-09-18T00:26:02.820Z,94185.44
2022-09-18T00:28:30.723Z,94170.28
2022-09-18T00:31:05.195Z,94199.75
2022-09-18T00:33:33.172Z,94181.06
2022-09-18T00:36:05.737Z,94164.00
2022-09-18T00:38:35.493Z,94202.41
2022-09-18T00:41:04.997Z,94182.97
2022-09-18T00:43:35.117Z,94210.88
2022-09-18T00:46:06.753Z,94208.06
2022-09-18T00:48:41.645Z,94230.53
2022-09-18T00:51:10.255Z,94247.88
2022-09-18T00:53:44.935Z,94257.53
2022-09-18T00:56:16.887Z,94266.00
2022-09-18T00:58:46.097Z,94290.72
2022-09-18T01:01:14.055Z,94282.47
2022-09-18T01:03:41.948Z,94288.19
2022-09-18T01:06:15.740Z,94295.47
2022-09-18T01:08:56.537Z,94313.53
2022-09-18T01:11:38.128Z,94318.03
2022-09-18T01:14:23.060Z,94333.25
2022-09-18T01:16:58.607Z,94373.31
2022-09-18T01:19:43.886Z,94370.81
2022-09-18T01:22:23.893Z,94372.66
2022-09-18T01:25:14.900Z,94412.59
2022-09-18T01:28:11.717Z,94433.06
2022-09-18T01:30:43.787Z,94429.97
2022-09-18T01:33:17.150Z,94447.59
2022-09-18T01:35:48.833Z,94455.78
2022-09-18T01:38:21.615Z,94450.16
2022-09-18T01:40:54.400Z,94473.63
2022-09-18T01:43:29.063Z,94483.28
2022-09-18T01:46:01.187Z,94473.84
2022-09-18T01:48:33.265Z,94505.94
2022-09-18T01:51:07.695Z,94505.47
2022-09-18T01:53:40.856Z,94500.88
2022-09-18T01:56:14.129Z,94508.34
2022-09-18T01:58:44.224Z,94520.25
2022-09-18T02:01:16.962Z,94517.56
2022-09-18T02:03:50.675Z,94516.06
2022-09-18T02:06:23.628Z,94532.47
2022-09-18T02:08:54.079Z,94541.00
2022-09-18T02:11:22.944Z,94544.97
2022-09-18T02:13:58.056Z,94557.00
2022-09-18T02:16:33.234Z,94568.50
2022-09-18T02:19:09.847Z,94574.56
2022-09-18T02:21:38.220Z,94584.00
2022-09-18T02:24:08.924Z,94579.28
2022-09-18T02:26:38.888Z,94589.38
2022-09-18T02:29:12.343Z,94602.03
2022-09-18T02:31:41.354Z,94610.69
2022-09-18T02:34:12.348Z,94622.00
2022-09-18T02:37:02.778Z,94634.34
2022-09-18T02:39:53.432Z,94648.59
2022-09-18T02:42:32.892Z,94646.13
2022-09-18T02:45:10.144Z,94651.72
2022-09-18T02:47:55.204Z,94632.44
2022-09-18T02:50:29.971Z,94635.16
2022-09-18T02:53:07.009Z,94653.97
2022-09-18T02:55:44.309Z,94644.66
2022-09-18T02:58:18.615Z,94661.69
2022-09-18T03:00:50.037Z,94667.22
2022-09-18T03:03:19.037Z,94679.06
2022-09-18T03:05:46.969Z,94671.22
2022-09-18T03:08:14.831Z,94679.94
2022-09-18T03:10:42.656Z,94680.50
2022-09-18T03:13:10.500Z,94693.72
2022-09-18T03:15:38.336Z,94695.81
2022-09-18T03:18:07.588Z,94684.16
2022-09-18T03:20:35.608Z,94695.03
2022-09-18T03:23:03.430Z,94706.78
2022-09-18T03:25:31.275Z,94709.34
2022-09-18T03:27:59.153Z,94716.66
2022-09-18T03:30:26.979Z,94715.31
2022-09-18T03:32:54.815Z,94713.94
2022-09-18T03:35:24.051Z,94717.28
2022-09-18T03:37:51.913Z,94722.31
2022-09-18T03:40:19.909Z,94719.22
2022-09-18T03:42:47.783Z,94729.31
2022-09-18T03:45:15.867Z,94728.72
2022-09-18T03:47:43.697Z,94723.34
2022-09-18T03:50:11.676Z,94726.66
2022-09-18T03:52:40.979Z,94739.94
2022-09-18T03:55:09.728Z,94742.78
2022-09-18T03:57:37.702Z,94740.34
2022-09-18T04:00:07.104Z,94755.22
2022-09-18T04:02:34.980Z,94764.44
2022-09-18T04:05:03.087Z,94769.81
2022-09-18T04:07:30.999Z,94775.25
2022-09-18T04:10:00.334Z,94780.06
2022-09-18T04:12:28.531Z,94780.34
2022-09-18T04:14:56.450Z,94777.38
2022-09-18T04:17:24.875Z,94779.19
2022-09-18T04:19:53.723Z,94788.19
2022-09-18T04:22:21.859Z,94791.81
2022-09-18T04:24:50.443Z,94802.25
2022-09-18T04:27:19.768Z,94803.31
2022-09-18T04:29:47.933Z,94794.00
2022-09-18T04:32:15.857Z,94794.66
2022-09-18T04:34:43.959Z,94816.88
2022-09-18T04:37:11.861Z,94809.97
2022-09-18T04:39:40.345Z,94821.16
2022-09-18T04:42:08.452Z,94823.84
2022-09-18T04:44:37.653Z,94825.09
2022-09-18T04:47:06.204Z,94829.00
2022-09-18T04:49:34.092Z,94838.44
2022-09-18T04:52:02.030Z,94834.84
2022-09-18T04:54:29.896Z,94847.81
2022-09-18T04:56:57.863Z,94854.66
2022-09-18T04:59:25.704Z,94854.63
2022-09-18T05:01:54.999Z,94856.34
2022-09-18T05:04:22.930Z,94877.72
2022-09-18T05:06:50.767Z,94880.59
2022-09-18T05:09:18.617Z,94869.06
2022-09-18T05:11:46.530Z,94881.34
2022-09-18T05:14:14.395Z,94889.28
2022-09-18T05:16:42.228Z,94893.06
2022-09-18T05:19:11.452Z,94917.88
2022-09-18T05:21:39.463Z,94917.00
2022-09-18T05:24:07.441Z,94915.00
2022-09-18T05:26:35.360Z,94915.63
2022-09-18T05:29:03.247Z,94907.69
2022-09-18T05:31:31.163Z,94912.56
2022-09-18T05:33:59.090Z,94908.13
2022-09-18T05:36:28.300Z,94914.13
2022-09-18T05:38:56.175Z,94913.41
2022-09-18T05:41:24.032Z,94915.25
2022-09-18T05:43:51.861Z,94922.06
2022-09-18T05:46:19.825Z,94930.31
2022-09-18T05:48:49.739Z,94916.91
2022-09-18T05:51:17.770Z,94929.25
2022-09-18T05:53:48.536Z,94923.06
2022-09-18T05:56:17.120Z,94934.44
2022-09-18T05:58:45.017Z,94918.34
2022-09-18T06:01:14.506Z,94934.44
2022-09-18T06:03:42.573Z,94920.88
2022-09-18T06:06:10.457Z,94926.09
2022-09-18T06:08:38.574Z,94930.53
2022-09-18T06:11:08.030Z,94944.75
2022-09-18T06:13:35.982Z,94938.84
2022-09-18T06:16:04.243Z,94942.78
2022-09-18T06:18:32.158Z,94951.56
2022-09-18T06:21:00.388Z,94956.16
2022-09-18T06:23:29.514Z,94961.22
2022-09-18T06:25:59.120Z,94962.41
2022-09-18T06:28:28.635Z,94964.34
2022-09-18T06:30:56.496Z,94979.41
2022-09-18T06:33:24.450Z,94976.22
2022-09-18T06:35:52.331Z,94992.78
2022-09-18T06:38:20.198Z,94991.44
2022-09-18T06:40:51.840Z,94991.13
2022-09-18T06:43:20.294Z,94999.19
2022-09-18T06:45:53.971Z,94999.78
2022-09-18T06:48:22.019Z,95000.22
2022-09-18T06:50:54.602Z,95008.97
2022-09-18T06:53:23.184Z,95020.25
2022-09-18T06:55:51.586Z,95007.00
2022-09-18T06:58:20.869Z,95019.69
2022-09-18T07:00:48.796Z,95017.31
2022-09-18T07:03:18.052Z,94998.50
2022-09-18T07:05:46.586Z,95022.22
2022-09-18T07:08:14.856Z,95018.22
2022-09-18T07:10:42.809Z,95024.31
2022-09-18T07:13:10.703Z,95035.75
2022-09-18T07:15:38.594Z,95026.97
2022-09-18T07:18:08.110Z,95030.28
2022-09-18T07:20:37.329Z,95016.59
2022-09-18T07:23:05.480Z,95033.84
2022-09-18T07:25:34.633Z,95031.78
2022-09-18T07:28:08.078Z,95018.34
2022-09-18T07:30:36.066Z,95029.75
2022-09-18T07:33:04.798Z,95035.22
2022-09-18T07:35:33.443Z,95003.41
2022-09-18T07:38:05.897Z,95032.72
2022-09-18T07:40:34.416Z,95044.84
2022-09-18T07:43:03.925Z,95037.16
2022-09-18T07:45:32.179Z,95035.34
2022-09-18T07:48:02.637Z,94941.22
2022-09-18T07:50:30.521Z,95044.50
2022-09-18T07:53:02.165Z,95013.53
2022-09-18T07:55:31.438Z,94998.09
2022-09-18T07:58:00.857Z,95008.94
2022-09-18T08:00:31.191Z,95006.66
2022-09-18T08:03:03.394Z,95006.28
2022-09-18T08:05:31.789Z,95007.44
2022-09-18T08:08:04.333Z,95012.31
2022-09-18T08:10:34.976Z,95009.88
2022-09-18T08:13:03.759Z,94977.09
2022-09-18T08:15:32.812Z,95007.13
2022-09-18T08:18:01.043Z,95012.25
2022-09-18T08:20:29.830Z,95000.88
2022-09-18T08:22:58.551Z,95006.56
2022-09-18T08:25:27.431Z,95012.59
2022-09-18T08:28:00.140Z,95013.56
2022-09-18T08:30:28.383Z,95017.03
2022-09-18T08:33:00.126Z,95014.69
2022-09-18T08:35:28.531Z,95024.63
2022-09-18T08:37:56.634Z,95032.72
2022-09-18T08:40:37.017Z,95031.88
2022-09-18T08:43:17.112Z,95032.34
2022-09-18T08:45:56.091Z,95019.44
2022-09-18T08:48:27.875Z,95034.44
2022-09-18T08:51:01.177Z,95043.31
2022-09-18T08:53:35.090Z,95042.34
2022-09-18T08:56:05.596Z,95031.47
2022-09-18T08:58:39.123Z,95053.38
2022-09-18T09:01:10.463Z,95054.72
2022-09-18T09:03:49.852Z,95047.69
2022-09-18T09:06:32.108Z,95067.03
2022-09-18T09:09:23.780Z,95055.97
2022-09-18T09:11:59.980Z,95048.78
2022-09-18T09:14:56.529Z,95046.31
2022-09-18T09:17:39.820Z,95059.09
2022-09-18T09:20:24.241Z,95039.69
2022-09-18T09:23:01.900Z,95077.53
2022-09-18T09:25:39.794Z,95067.75
2022-09-18T09:28:16.821Z,95093.66
2022-09-18T09:30:49.348Z,95080.91
2022-09-18T09:33:22.484Z,95083.53
2022-09-18T09:35:54.628Z,95082.91
2022-09-18T09:38:40.444Z,95093.25
2022-09-18T09:41:17.373Z,95112.78
2022-09-18T09:43:53.784Z,95110.06
2022-09-18T09:46:37.796Z,95111.09
2022-09-18T09:49:11.309Z,95092.97
2022-09-18T09:51:47.813Z,95118.19
2022-09-18T09:54:15.756Z,95078.63
2022-09-18T09:56:51.242Z,95083.81
2022-09-18T09:59:25.513Z,95100.81
2022-09-18T10:02:00.868Z,94983.00
2022-09-18T10:04:37.998Z,95110.44
2022-09-18T10:07:16.150Z,95114.38
2022-09-18T10:09:49.313Z,95131.25
2022-09-18T10:12:25.968Z,95083.50
2022-09-18T10:14:58.251Z,95133.13
2022-09-18T10:17:32.553Z,95135.13
2022-09-18T10:20:00.496Z,95135.03
2022-09-18T10:22:29.908Z,95135.59
2022-09-18T10:25:04.804Z,95096.00
2022-09-18T10:27:32.866Z,95151.53
2022-09-18T10:30:01.392Z,95135.81
2022-09-18T10:32:38.423Z,95136.09
2022-09-18T10:35:42.784Z,95156.09
2022-09-18T10:38:30.801Z,95107.59
2022-09-18T10:41:12.558Z,95011.88
2022-09-18T10:43:56.049Z,95152.53
2022-09-18T10:46:26.153Z,95151.22
2022-09-18T10:48:55.716Z,95156.84
2022-09-18T10:51:25.840Z,95157.19
2022-09-18T10:54:16.605Z,95151.50
2022-09-18T10:56:44.511Z,95159.16
2022-09-18T10:59:35.156Z,95153.56
2022-09-18T11:02:06.326Z,95154.16
2022-09-18T11:04:35.937Z,95160.53
2022-09-18T11:07:07.628Z,95162.25
2022-09-18T11:09:39.618Z,95163.28
2022-09-18T11:12:15.847Z,95163.56
2022-09-18T11:14:47.452Z,95163.34
2022-09-18T11:17:31.489Z,95166.69
2022-09-18T11:20:03.112Z,95151.34
2022-09-18T11:22:40.099Z,95156.81
2022-09-18T11:25:17.794Z,95169.25
2022-09-18T11:27:47.682Z,95150.41
2022-09-18T11:30:24.026Z,95144.56
2022-09-18T11:32:58.409Z,95139.53
2022-09-18T11:35:29.571Z,95158.59
2022-09-18T11:38:00.844Z,95080.09
2022-09-18T11:40:32.875Z,95163.84
2022-09-18T11:43:05.515Z,95170.84
2022-09-18T11:45:50.836Z,95168.28
2022-09-18T11:48:27.409Z,95159.31
2022-09-18T11:50:58.956Z,95152.78
2022-09-18T11:53:31.365Z,95167.69
2022-09-18T11:56:05.489Z,95118.44
2022-09-18T11:58:39.036Z,95162.84
2022-09-18T12:01:16.440Z,95173.34
2022-09-18T12:03:49.905Z,95194.88
2022-09-18T12:06:28.774Z,95178.75
2022-09-18T12:09:01.152Z,95174.56
2022-09-18T12:11:35.880Z,95137.16
2022-09-18T12:14:13.350Z,95174.78
2022-09-18T12:16:46.133Z,95170.06
2022-09-18T12:19:19.203Z,95190.47
2022-09-18T12:21:55.800Z,95182.19
2022-09-18T12:24:24.216Z,95182.94
2022-09-18T12:27:01.943Z,95174.53
2022-09-18T12:29:44.665Z,95135.44
2022-09-18T12:32:31.315Z,95179.44
2022-09-18T12:35:07.751Z,95188.53
2022-09-18T12:37:52.046Z,95173.97
2022-09-18T12:40:44.539Z,95194.66
2022-09-18T12:43:34.888Z,95199.50
2022-09-18T12:46:19.512Z,95186.06
2022-09-18T12:49:00.279Z,95156.13
2022-09-18T12:51:40.104Z,95185.75
2022-09-18T12:54:27.005Z,95194.47
2022-09-18T12:57:08.404Z,95145.41
2022-09-18T12:59:47.436Z,95171.28
2022-09-18T13:02:28.916Z,95200.16
2022-09-18T13:05:03.736Z,95174.38
2022-09-18T13:07:36.329Z,95199.53
2022-09-18T13:10:12.686Z,95186.63
2022-09-18T13:12:45.746Z,95159.16
2022-09-18T13:15:18.228Z,95183.94
2022-09-18T13:17:51.131Z,95182.63
2022-09-18T13:20:25.018Z,95184.72
2022-09-18T13:22:56.024Z,95189.22
2022-09-18T13:25:31.472Z,95192.75
2022-09-18T13:28:03.199Z,95173.78
2022-09-18T13:30:31.943Z,95179.50
2022-09-18T13:33:01.066Z,95178.88
2022-09-18T13:35:31.108Z,95188.91
2022-09-18T13:38:16.601Z,95181.06
2022-09-18T13:40:48.306Z,95196.22
2022-09-18T13:43:24.261Z,95205.09
2022-09-18T13:45:52.732Z,95194.88
2022-09-18T13:48:24.431Z,95176.97
2022-09-18T13:50:57.217Z,95197.47
2022-09-18T13:53:33.527Z,95198.22
2022-09-18T13:56:03.946Z,95194.16
2022-09-18T13:58:54.395Z,95190.31
2022-09-18T14:01:58.081Z,95212.88
2022-09-18T14:05:08.616Z,95208.13
2022-09-18T14:07:55.310Z,95213.84
2022-09-18T14:10:26.961Z,95202.25
2022-09-18T14:13:28.289Z,95203.66
2022-09-18T14:16:03.026Z,95209.56
2022-09-18T14:18:33.443Z,95196.47
2022-09-18T14:21:16.462Z,95212.59
2022-09-18T14:24:26.002Z,95179.25
2022-09-18T14:26:57.313Z,95186.78
2022-09-18T14:29:29.467Z,95208.53
2022-09-18T14:32:00.822Z,95202.00
2022-09-18T14:34:35.504Z,95191.78
2022-09-18T14:37:23.203Z,95203.47
2022-09-18T14:39:53.250Z,95142.53
2022-09-18T14:42:32.449Z,95207.31
2022-09-18T14:45:24.221Z,95199.81
2022-09-18T14:47:53.948Z,95207.09
2022-09-18T14:50:28.574Z,95202.34
2022-09-18T14:52:57.575Z,95208.03
2022-09-18T14:55:31.956Z,95177.94
2022-09-18T14:58:03.211Z,95174.09
2022-09-18T15:00:34.195Z,95199.75
2022-09-18T15:03:07.260Z,95207.75
2022-09-18T15:05:35.833Z,95198.63
2022-09-18T15:08:06.392Z,95209.19
2022-09-18T15:10:39.088Z,95204.94
2022-09-18T15:13:09.472Z,95211.94
2022-09-18T15:15:40.132Z,95208.03
2022-09-18T15:18:19.809Z,95201.94
2022-09-18T15:20:52.809Z,95201.72
2022-09-18T15:23:23.121Z,95201.81
2022-09-18T15:25:53.651Z,95209.00
2022-09-18T15:28:24.146Z,95202.25
2022-09-18T15:30:56.950Z,95220.09
2022-09-18T15:33:27.574Z,95181.44
2022-09-18T15:35:56.990Z,95197.06
2022-09-18T15:38:35.148Z,95218.25
2022-09-18T15:41:22.185Z,95207.34
2022-09-18T15:43:50.498Z,95227.03
2022-09-18T15:46:27.342Z,95182.94
2022-09-18T15:49:00.433Z,95231.91
2022-09-18T15:51:30.206Z,95230.59
2022-09-18T15:54:26.508Z,95068.69
2022-09-18T15:56:56.746Z,95208.94
2022-09-18T15:59:30.564Z,95232.78
2022-09-18T16:01:59.291Z,95234.63
2022-09-18T16:04:32.932Z,95235.41
2022-09-18T16:07:04.075Z,95246.50
2022-09-18T16:09:36.967Z,95248.75
2022-09-18T16:12:34.491Z,95221.16
2022-09-18T16:15:15.935Z,95248.53
2022-09-18T16:18:27.107Z,95245.28
2022-09-18T16:21:05.455Z,95231.78
2022-09-18T16:23:36.013Z,95204.78
2022-09-18T16:26:10.591Z,95252.00
2022-09-18T16:28:42.631Z,95243.69
2022-09-18T16:31:11.701Z,95249.44
2022-09-18T16:33:50.548Z,95237.31
2022-09-18T16:36:27.830Z,95254.47
2022-09-18T16:38:55.860Z,95224.25
2022-09-18T16:41:23.891Z,95244.50
2022-09-18T16:43:53.088Z,95263.38
2022-09-18T16:46:23.817Z,95270.91
2022-09-18T16:48:52.252Z,95182.41
2022-09-18T16:51:22.167Z,95252.72
2022-09-18T16:53:51.505Z,95274.66
2022-09-18T16:56:25.330Z,95279.09
2022-09-18T16:58:54.406Z,95284.41
2022-09-18T17:01:23.290Z,95290.19
2022-09-18T17:03:51.802Z,95290.72
2022-09-18T17:06:19.962Z,95294.59
2022-09-18T17:08:47.812Z,95295.94
2022-09-18T17:11:18.073Z,95295.25
2022-09-18T17:13:46.039Z,95298.22
2022-09-18T17:16:22.280Z,95305.09
2022-09-18T17:19:01.747Z,95315.06
2022-09-18T17:21:29.802Z,95316.28
2022-09-18T17:23:57.873Z,95293.81
2022-09-18T17:26:28.577Z,95310.94
2022-09-18T17:28:56.458Z,95300.94
2022-09-18T17:31:26.409Z,95333.81
2022-09-18T17:33:55.650Z,95334.59
2022-09-18T17:36:24.347Z,95338.09
2022-09-18T17:38:52.395Z,95338.00
2022-09-18T17:41:20.464Z,95337.09
2022-09-18T17:43:53.690Z,95343.19
2022-09-18T17:46:22.031Z,95338.81
2022-09-18T17:48:50.120Z,95297.78
2022-09-18T17:51:19.687Z,95347.53
2022-09-18T17:53:50.560Z,95362.75
2022-09-18T17:56:20.745Z,95378.84
2022-09-18T17:58:48.894Z,95357.56
2022-09-18T18:01:20.254Z,95371.44
2022-09-18T18:03:48.585Z,95378.66
2022-09-18T18:06:21.541Z,95372.13
2022-09-18T18:08:49.900Z,95370.22
2022-09-18T18:11:20.008Z,95379.66
2022-09-18T18:13:48.890Z,95373.72
2022-09-18T18:16:23.108Z,95382.94
2022-09-18T18:18:51.836Z,95325.97
2022-09-18T18:21:19.950Z,95381.13
2022-09-18T18:23:49.095Z,95380.69
2022-09-18T18:26:16.978Z,95385.31
2022-09-18T18:28:45.183Z,95388.81
2022-09-18T18:31:14.477Z,95386.00
2022-09-18T18:33:44.312Z,95387.91
2022-09-18T18:36:14.925Z,95384.31
2022-09-18T18:38:44.159Z,95332.94
2022-09-18T18:41:13.336Z,95392.66
2022-09-18T18:43:42.028Z,95342.34
2022-09-18T18:46:12.904Z,95386.56
2022-09-18T18:48:41.388Z,95388.25
2022-09-18T18:51:13.444Z,95388.94
2022-09-18T18:53:42.101Z,95387.69
2022-09-18T18:56:12.275Z,95386.22
2022-09-18T18:58:40.658Z,95389.59
2022-09-18T19:01:10.768Z,95390.72
2022-09-18T19:03:43.095Z,95377.75
2022-09-18T19:06:13.297Z,95393.88
2022-09-18T19:08:42.060Z,95393.06
2022-09-18T19:11:09.903Z,95391.47
2022-09-18T19:13:44.510Z,95387.00
2022-09-18T19:16:13.411Z,95314.03
2022-09-18T19:18:41.817Z,95386.94
2022-09-18T19:21:09.704Z,95390.28
2022-09-18T19:23:38.936Z,95385.91
2022-09-18T19:26:07.335Z,95332.38
2022-09-18T19:28:35.182Z,95385.09
2022-09-18T19:31:05.182Z,95386.91
2022-09-18T19:33:34.321Z,95382.16
2022-09-18T19:36:06.034Z,95387.78
2022-09-18T19:38:37.023Z,95369.72
2022-09-18T19:41:11.326Z,95389.13
2022-09-18T19:43:39.290Z,95403.69
2022-09-18T19:46:11.995Z,95398.41
2022-09-18T19:48:40.023Z,95402.91
2022-09-18T19:51:09.391Z,95334.63
2022-09-18T19:53:37.251Z,95403.63
2022-09-18T19:56:27.459Z,95404.59
2022-09-18T19:58:59.339Z,95404.94
2022-09-18T20:01:27.179Z,95339.06
2022-09-18T20:03:56.504Z,95309.22
2022-09-18T20:06:24.409Z,95412.09
2022-09-18T20:08:52.951Z,95411.81
2022-09-18T20:11:22.235Z,95413.84
2022-09-18T20:13:51.616Z,95415.25
2022-09-18T20:16:21.151Z,95416.97
2022-09-18T20:18:50.053Z,95405.28
2022-09-18T20:21:20.195Z,95381.94
2022-09-18T20:23:49.038Z,95347.34
2022-09-18T20:26:20.351Z,95418.13
2022-09-18T20:28:49.633Z,95423.38
2022-09-18T20:31:18.224Z,95422.59
2022-09-18T20:33:47.171Z,95426.88
2022-09-18T20:36:15.033Z,95425.44
2022-09-18T20:38:43.827Z,95419.81
2022-09-18T20:41:13.631Z,95334.50
2022-09-18T20:43:42.060Z,95229.03
2022-09-18T20:46:14.315Z,95430.16
2022-09-18T20:48:45.343Z,95432.50
2022-09-18T20:51:15.316Z,95427.13
2022-09-18T20:53:46.447Z,95424.28
2022-09-18T20:56:15.983Z,95425.56
2022-09-18T20:58:43.874Z,95426.81
2022-09-18T21:01:15.531Z,95420.66
2022-09-18T21:03:45.003Z,95400.06
2022-09-18T21:06:23.492Z,95321.50
2022-09-18T21:08:53.913Z,95399.88
2022-09-18T21:11:23.965Z,95423.88
2022-09-18T21:13:53.865Z,95423.56
2022-09-18T21:16:26.888Z,95435.78
2022-09-18T21:18:57.696Z,95435.50
2022-09-18T21:21:27.574Z,95368.13
2022-09-18T21:23:58.485Z,95400.88
2022-09-18T21:26:28.139Z,95434.09
2022-09-18T21:29:00.369Z,95430.91
2022-09-18T21:31:30.366Z,95434.25
2022-09-18T21:34:00.549Z,95343.31
2022-09-18T21:36:29.023Z,95433.59
2022-09-18T21:38:56.908Z,95424.91
2022-09-18T21:41:26.201Z,95431.06
2022-09-18T21:43:57.458Z,95316.44
2022-09-18T21:46:25.634Z,95284.97
2022-09-18T21:48:56.746Z,95265.25
2022-09-18T21:51:24.610Z,95426.88
2022-09-18T21:53:52.456Z,95406.03
2022-09-18T21:56:21.805Z,95422.94
2022-09-18T21:58:50.658Z,95428.16
2022-09-18T22:01:20.528Z,95427.38
2022-09-18T22:03:53.502Z,95385.38
2022-09-18T22:06:28.544Z,95367.34
2022-09-18T22:08:59.614Z,95430.78
2022-09-18T22:11:32.294Z,95421.91
2022-09-18T22:14:01.000Z,95428.56
2022-09-18T22:16:29.697Z,95383.81
2022-09-18T22:18:57.996Z,95429.03
2022-09-18T22:21:29.240Z,95420.19
2022-09-18T22:24:06.271Z,95370.47
2022-09-18T22:26:37.015Z,95389.16
2022-09-18T22:29:13.449Z,95366.97
2022-09-18T22:31:41.378Z,95432.84
2022-09-18T22:34:09.563Z,95332.50
2022-09-18T22:36:38.789Z,95433.75
2022-09-18T22:39:06.937Z,95441.44
2022-09-18T22:41:40.193Z,95307.06
2022-09-18T22:44:08.765Z,95395.00
2022-09-18T22:46:39.317Z,95446.44
2022-09-18T22:49:08.810Z,95355.78
2022-09-18T22:51:40.108Z,95373.19
2022-09-18T22:54:08.749Z,95441.84
2022-09-18T22:56:39.973Z,95337.28
2022-09-18T22:59:08.364Z,95441.25
2022-09-18T23:01:41.641Z,95399.44
2022-09-18T23:04:10.181Z,95449.66
2022-09-18T23:06:39.536Z,95440.97
2022-09-18T23:09:07.628Z,95443.47
2022-09-18T23:11:36.153Z,95450.25
2022-09-18T23:14:06.491Z,95309.91
2022-09-18T23:16:36.573Z,95432.41
2022-09-18T23:19:06.458Z,95437.78
2022-09-18T23:21:35.983Z,95339.34
2022-09-18T23:24:09.094Z,95397.09
2022-09-18T23:26:39.326Z,95435.75
2022-09-18T23:29:08.644Z,95430.44
2022-09-18T23:31:38.939Z,95433.44
2022-09-18T23:34:10.566Z,95433.41
2022-09-18T23:36:40.635Z,95432.94
2022-09-18T23:39:13.690Z,95425.78
2022-09-18T23:41:42.558Z,95370.56
2022-09-18T23:44:12.332Z,95422.31
2022-09-18T23:46:40.569Z,95338.34
2022-09-18T23:49:09.886Z,95383.56
2022-09-18T23:51:40.474Z,95323.00
2022-09-18T23:54:15.528Z,95424.03
2022-09-18T23:56:44.041Z,95295.38
2022-09-18T23:59:13.191Z,95417.34
